sensor_id;sensor_type;location;lat;lon;timestamp;temperature;humidity
43647;DHT22;56152;49.996;18.980;2023-07-13T00:02:07;20.20;92.10
43647;DHT22;56152;49.996;18.980;2023-07-13T00:07:21;20.10;92.10
43647;DHT22;56152;49.996;18.980;2023-07-13T00:12:27;20.00;92.00
43647;DHT22;56152;49.996;18.980;2023-07-13T00:17:41;20.00;92.20
43647;DHT22;56152;49.996;18.980;2023-07-13T00:22:46;19.80;92.20
43647;DHT22;56152;49.996;18.980;2023-07-13T00:27:51;19.70;92.20
43647;DHT22;56152;49.996;18.980;2023-07-13T00:32:54;19.60;92.30
43647;DHT22;56152;49.996;18.980;2023-07-13T00:38:16;19.50;92.40
43647;DHT22;56152;49.996;18.980;2023-07-13T00:43:21;19.30;92.30
43647;DHT22;56152;49.996;18.980;2023-07-13T00:53:48;19.10;92.50
43647;DHT22;56152;49.996;18.980;2023-07-13T00:59:03;19.10;92.70
43647;DHT22;56152;49.996;18.980;2023-07-13T01:04:07;19.00;92.70
43647;DHT22;56152;49.996;18.980;2023-07-13T01:09:19;19.00;92.80
43647;DHT22;56152;49.996;18.980;2023-07-13T01:14:21;18.80;93.30
43647;DHT22;56152;49.996;18.980;2023-07-13T01:19:55;18.80;93.50
43647;DHT22;56152;49.996;18.980;2023-07-13T01:24:59;18.80;93.10
43647;DHT22;56152;49.996;18.980;2023-07-13T01:30:01;18.80;93.20
43647;DHT22;56152;49.996;18.980;2023-07-13T01:35:10;18.80;93.40
43647;DHT22;56152;49.996;18.980;2023-07-13T01:40:17;18.80;93.40
43647;DHT22;56152;49.996;18.980;2023-07-13T01:45:39;18.80;93.40
43647;DHT22;56152;49.996;18.980;2023-07-13T01:50:44;18.80;93.30
43647;DHT22;56152;49.996;18.980;2023-07-13T01:55:49;18.80;93.60
43647;DHT22;56152;49.996;18.980;2023-07-13T02:06:35;18.80;93.40
43647;DHT22;56152;49.996;18.980;2023-07-13T02:11:40;18.80;93.50
43647;DHT22;56152;49.996;18.980;2023-07-13T02:16:49;18.70;93.60
43647;DHT22;56152;49.996;18.980;2023-07-13T02:21:52;18.60;93.70
43647;DHT22;56152;49.996;18.980;2023-07-13T02:27:09;18.50;93.80
43647;DHT22;56152;49.996;18.980;2023-07-13T02:32:11;18.30;93.90
43647;DHT22;56152;49.996;18.980;2023-07-13T02:37:40;18.30;94.10
43647;DHT22;56152;49.996;18.980;2023-07-13T02:42:57;18.10;94.00
43647;DHT22;56152;49.996;18.980;2023-07-13T02:47:59;18.00;94.10
43647;DHT22;56152;49.996;18.980;2023-07-13T02:53:04;17.90;94.30
43647;DHT22;56152;49.996;18.980;2023-07-13T02:58:08;17.80;94.50
43647;DHT22;56152;49.996;18.980;2023-07-13T03:03:12;17.80;94.60
43647;DHT22;56152;49.996;18.980;2023-07-13T03:08:14;17.80;94.70
43647;DHT22;56152;49.996;18.980;2023-07-13T03:13:18;17.80;94.60
43647;DHT22;56152;49.996;18.980;2023-07-13T03:18:21;17.80;94.70
43647;DHT22;56152;49.996;18.980;2023-07-13T03:23:34;17.90;94.70
43647;DHT22;56152;49.996;18.980;2023-07-13T03:28:39;18.00;94.60
43647;DHT22;56152;49.996;18.980;2023-07-13T03:33:58;18.10;94.70
43647;DHT22;56152;49.996;18.980;2023-07-13T03:39:03;18.10;94.60
43647;DHT22;56152;49.996;18.980;2023-07-13T03:44:28;18.20;94.60
43647;DHT22;56152;49.996;18.980;2023-07-13T03:49:30;18.30;94.50
43647;DHT22;56152;49.996;18.980;2023-07-13T03:54:57;18.40;94.50
43647;DHT22;56152;49.996;18.980;2023-07-13T04:00:01;18.50;94.50
43647;DHT22;56152;49.996;18.980;2023-07-13T04:05:07;18.60;94.60
43647;DHT22;56152;49.996;18.980;2023-07-13T04:10:12;18.60;94.60
43647;DHT22;56152;49.996;18.980;2023-07-13T04:15:17;18.70;94.50
43647;DHT22;56152;49.996;18.980;2023-07-13T04:20:19;18.80;94.50
43647;DHT22;56152;49.996;18.980;2023-07-13T04:25:25;18.80;94.50
43647;DHT22;56152;49.996;18.980;2023-07-13T04:30:55;18.90;94.60
43647;DHT22;56152;49.996;18.980;2023-07-13T04:36:00;19.00;94.60
43647;DHT22;56152;49.996;18.980;2023-07-13T04:41:06;19.10;94.60
43647;DHT22;56152;49.996;18.980;2023-07-13T04:46:24;19.10;94.60
43647;DHT22;56152;49.996;18.980;2023-07-13T04:51:26;19.20;94.50
43647;DHT22;56152;49.996;18.980;2023-07-13T04:56:29;19.30;94.50
43647;DHT22;56152;49.996;18.980;2023-07-13T05:01:36;19.40;94.50
43647;DHT22;56152;49.996;18.980;2023-07-13T05:06:39;19.40;94.50
43647;DHT22;56152;49.996;18.980;2023-07-13T05:11:44;19.60;94.50
43647;DHT22;56152;49.996;18.980;2023-07-13T05:16:50;19.60;94.40
43647;DHT22;56152;49.996;18.980;2023-07-13T05:21:52;19.80;94.50
43647;DHT22;56152;49.996;18.980;2023-07-13T05:32:53;20.30;93.90
43647;DHT22;56152;49.996;18.980;2023-07-13T05:37:55;20.60;93.60
43647;DHT22;56152;49.996;18.980;2023-07-13T05:42:58;20.80;93.50
43647;DHT22;56152;49.996;18.980;2023-07-13T05:48:30;20.90;93.20
43647;DHT22;56152;49.996;18.980;2023-07-13T05:53:35;21.10;93.10
43647;DHT22;56152;49.996;18.980;2023-07-13T05:58:38;21.20;92.90
43647;DHT22;56152;49.996;18.980;2023-07-13T06:03:55;21.30;92.80
43647;DHT22;56152;49.996;18.980;2023-07-13T06:08:57;21.40;92.70
43647;DHT22;56152;49.996;18.980;2023-07-13T06:19:56;21.50;92.30
43647;DHT22;56152;49.996;18.980;2023-07-13T06:24:57;21.50;92.30
43647;DHT22;56152;49.996;18.980;2023-07-13T06:30:00;21.50;92.30
43647;DHT22;56152;49.996;18.980;2023-07-13T06:35:07;21.70;92.30
43647;DHT22;56152;49.996;18.980;2023-07-13T06:40:09;21.80;92.10
43647;DHT22;56152;49.996;18.980;2023-07-13T06:45:20;21.80;92.00
43647;DHT22;56152;49.996;18.980;2023-07-13T06:50:47;21.90;92.00
43647;DHT22;56152;49.996;18.980;2023-07-13T06:55:51;21.90;92.00
43647;DHT22;56152;49.996;18.980;2023-07-13T07:00:53;21.90;92.00
43647;DHT22;56152;49.996;18.980;2023-07-13T07:06:06;22.00;91.70
43647;DHT22;56152;49.996;18.980;2023-07-13T07:11:14;21.90;91.80
43647;DHT22;56152;49.996;18.980;2023-07-13T07:16:31;22.10;92.20
43647;DHT22;56152;49.996;18.980;2023-07-13T07:22:01;22.20;91.80
43647;DHT22;56152;49.996;18.980;2023-07-13T07:27:20;22.30;91.80
43647;DHT22;56152;49.996;18.980;2023-07-13T07:32:23;22.30;91.80
43647;DHT22;56152;49.996;18.980;2023-07-13T07:37:46;22.30;91.80
43647;DHT22;56152;49.996;18.980;2023-07-13T07:43:13;22.20;91.90
43647;DHT22;56152;49.996;18.980;2023-07-13T07:48:15;22.20;91.60
43647;DHT22;56152;49.996;18.980;2023-07-13T07:59:16;22.10;91.70
43647;DHT22;56152;49.996;18.980;2023-07-13T08:04:19;22.10;91.60
43647;DHT22;56152;49.996;18.980;2023-07-13T08:09:21;22.10;91.60
43647;DHT22;56152;49.996;18.980;2023-07-13T08:14:26;22.00;91.50
43647;DHT22;56152;49.996;18.980;2023-07-13T08:19:29;22.00;91.70
43647;DHT22;56152;49.996;18.980;2023-07-13T08:24:35;22.00;91.70
43647;DHT22;56152;49.996;18.980;2023-07-13T08:29:42;21.90;91.70
43647;DHT22;56152;49.996;18.980;2023-07-13T08:34:50;21.90;91.80
43647;DHT22;56152;49.996;18.980;2023-07-13T08:39:53;21.80;91.90
43647;DHT22;56152;49.996;18.980;2023-07-13T08:45:07;21.80;92.10
43647;DHT22;56152;49.996;18.980;2023-07-13T08:50:15;21.70;92.30
43647;DHT22;56152;49.996;18.980;2023-07-13T08:55:24;21.70;92.50
43647;DHT22;56152;49.996;18.980;2023-07-13T09:00:40;21.60;92.70
43647;DHT22;56152;49.996;18.980;2023-07-13T09:05:51;21.70;93.00
43647;DHT22;56152;49.996;18.980;2023-07-13T09:11:06;21.80;93.10
43647;DHT22;56152;49.996;18.980;2023-07-13T09:16:15;21.80;93.00
43647;DHT22;56152;49.996;18.980;2023-07-13T09:21:22;21.90;92.90
43647;DHT22;56152;49.996;18.980;2023-07-13T09:26:28;21.80;92.90
43647;DHT22;56152;49.996;18.980;2023-07-13T09:31:41;21.60;93.10
43647;DHT22;56152;49.996;18.980;2023-07-13T09:37:02;21.50;93.30
43647;DHT22;56152;49.996;18.980;2023-07-13T09:42:20;21.30;93.30
43647;DHT22;56152;49.996;18.980;2023-07-13T09:47:26;21.20;93.60
43647;DHT22;56152;49.996;18.980;2023-07-13T09:52:50;21.10;93.90
43647;DHT22;56152;49.996;18.980;2023-07-13T09:57:54;21.00;93.90
43647;DHT22;56152;49.996;18.980;2023-07-13T10:03:03;20.70;94.20
43647;DHT22;56152;49.996;18.980;2023-07-13T10:08:21;20.60;94.50
43647;DHT22;56152;49.996;18.980;2023-07-13T10:13:31;20.40;94.50
43647;DHT22;56152;49.996;18.980;2023-07-13T10:18:45;19.90;94.60
43647;DHT22;56152;49.996;18.980;2023-07-13T10:23:56;19.40;94.90
43647;DHT22;56152;49.996;18.980;2023-07-13T10:29:09;18.90;95.20
43647;DHT22;56152;49.996;18.980;2023-07-13T10:34:16;18.60;95.60
43647;DHT22;56152;49.996;18.980;2023-07-13T10:39:27;18.30;95.70
43647;DHT22;56152;49.996;18.980;2023-07-13T10:44:46;18.10;95.80
43647;DHT22;56152;49.996;18.980;2023-07-13T10:49:54;17.90;95.70
43647;DHT22;56152;49.996;18.980;2023-07-13T10:55:30;17.80;95.90
43647;DHT22;56152;49.996;18.980;2023-07-13T11:00:46;17.70;96.00
43647;DHT22;56152;49.996;18.980;2023-07-13T11:06:29;17.70;96.10
43647;DHT22;56152;49.996;18.980;2023-07-13T11:11:49;17.80;95.90
43647;DHT22;56152;49.996;18.980;2023-07-13T11:16:53;17.90;96.00
43647;DHT22;56152;49.996;18.980;2023-07-13T11:22:25;18.00;95.90
43647;DHT22;56152;49.996;18.980;2023-07-13T11:27:51;18.10;95.90
43647;DHT22;56152;49.996;18.980;2023-07-13T11:33:12;18.10;95.90
43647;DHT22;56152;49.996;18.980;2023-07-13T11:38:20;18.20;95.80
43647;DHT22;56152;49.996;18.980;2023-07-13T11:43:26;18.30;95.90
43647;DHT22;56152;49.996;18.980;2023-07-13T11:48:29;18.30;95.80
43647;DHT22;56152;49.996;18.980;2023-07-13T11:53:39;18.30;95.80
43647;DHT22;56152;49.996;18.980;2023-07-13T11:58:42;18.40;96.00
43647;DHT22;56152;49.996;18.980;2023-07-13T12:03:45;18.40;95.90
43647;DHT22;56152;49.996;18.980;2023-07-13T12:09:21;18.40;95.90
43647;DHT22;56152;49.996;18.980;2023-07-13T12:14:26;18.40;95.90
43647;DHT22;56152;49.996;18.980;2023-07-13T12:19:48;18.50;95.90
43647;DHT22;56152;49.996;18.980;2023-07-13T12:25:17;18.70;95.90
43647;DHT22;56152;49.996;18.980;2023-07-13T12:30:26;18.70;95.70
43647;DHT22;56152;49.996;18.980;2023-07-13T12:35:42;18.70;95.70
43647;DHT22;56152;49.996;18.980;2023-07-13T12:40:51;18.70;95.80
43647;DHT22;56152;49.996;18.980;2023-07-13T12:45:56;18.80;96.00
43647;DHT22;56152;49.996;18.980;2023-07-13T12:51:11;19.20;95.80
43647;DHT22;56152;49.996;18.980;2023-07-13T12:56:22;19.40;95.50
43647;DHT22;56152;49.996;18.980;2023-07-13T13:01:27;19.50;95.30
43647;DHT22;56152;49.996;18.980;2023-07-13T13:07:07;19.80;95.30
43647;DHT22;56152;49.996;18.980;2023-07-13T13:12:15;19.90;95.00
43647;DHT22;56152;49.996;18.980;2023-07-13T13:17:41;19.90;94.70
43647;DHT22;56152;49.996;18.980;2023-07-13T13:22:46;19.70;94.80
43647;DHT22;56152;49.996;18.980;2023-07-13T13:27:53;19.60;95.00
43647;DHT22;56152;49.996;18.980;2023-07-13T13:39:02;19.60;95.10
43647;DHT22;56152;49.996;18.980;2023-07-13T13:44:10;19.70;95.00
43647;DHT22;56152;49.996;18.980;2023-07-13T13:49:15;19.70;94.90
43647;DHT22;56152;49.996;18.980;2023-07-13T13:54:22;19.60;95.00
43647;DHT22;56152;49.996;18.980;2023-07-13T13:59:27;19.50;94.70
43647;DHT22;56152;49.996;18.980;2023-07-13T14:05:00;19.50;95.10
43647;DHT22;56152;49.996;18.980;2023-07-13T14:10:11;19.30;95.00
43647;DHT22;56152;49.996;18.980;2023-07-13T14:15:21;19.20;95.20
43647;DHT22;56152;49.996;18.980;2023-07-13T14:20:25;19.20;95.40
43647;DHT22;56152;49.996;18.980;2023-07-13T14:25:35;19.40;95.20
43647;DHT22;56152;49.996;18.980;2023-07-13T14:30:40;19.50;95.10
43647;DHT22;56152;49.996;18.980;2023-07-13T14:35:43;19.70;94.80
43647;DHT22;56152;49.996;18.980;2023-07-13T14:40:45;20.00;94.60
43647;DHT22;56152;49.996;18.980;2023-07-13T14:45:50;20.00;94.20
43647;DHT22;56152;49.996;18.980;2023-07-13T14:51:03;20.10;94.10
43647;DHT22;56152;49.996;18.980;2023-07-13T14:56:10;20.00;93.90
43647;DHT22;56152;49.996;18.980;2023-07-13T15:01:17;20.00;93.90
43647;DHT22;56152;49.996;18.980;2023-07-13T15:06:28;20.00;93.90
43647;DHT22;56152;49.996;18.980;2023-07-13T15:11:32;20.10;93.70
43647;DHT22;56152;49.996;18.980;2023-07-13T15:16:39;20.20;93.50
43647;DHT22;56152;49.996;18.980;2023-07-13T15:21:41;20.40;93.10
43647;DHT22;56152;49.996;18.980;2023-07-13T15:27:10;20.50;93.00
43647;DHT22;56152;49.996;18.980;2023-07-13T15:32:14;20.70;92.90
43647;DHT22;56152;49.996;18.980;2023-07-13T15:37:16;20.70;92.70
43647;DHT22;56152;49.996;18.980;2023-07-13T15:42:20;20.70;92.40
43647;DHT22;56152;49.996;18.980;2023-07-13T15:47:30;20.70;92.30
43647;DHT22;56152;49.996;18.980;2023-07-13T15:52:33;20.50;92.30
43647;DHT22;56152;49.996;18.980;2023-07-13T15:57:46;20.30;92.50
43647;DHT22;56152;49.996;18.980;2023-07-13T16:02:52;20.30;92.60
43647;DHT22;56152;49.996;18.980;2023-07-13T16:08:18;20.30;92.50
43647;DHT22;56152;49.996;18.980;2023-07-13T16:13:22;20.40;92.60
43647;DHT22;56152;49.996;18.980;2023-07-13T16:18:40;20.50;92.50
43647;DHT22;56152;49.996;18.980;2023-07-13T16:23:48;20.60;92.30
43647;DHT22;56152;49.996;18.980;2023-07-13T16:28:50;20.60;92.20
43647;DHT22;56152;49.996;18.980;2023-07-13T16:34:03;20.60;92.10
43647;DHT22;56152;49.996;18.980;2023-07-13T16:39:12;20.40;92.30
43647;DHT22;56152;49.996;18.980;2023-07-13T16:44:17;20.40;92.30
43647;DHT22;56152;49.996;18.980;2023-07-13T16:49:45;20.50;92.20
43647;DHT22;56152;49.996;18.980;2023-07-13T16:54:49;20.50;92.10
43647;DHT22;56152;49.996;18.980;2023-07-13T16:59:53;20.60;92.00
43647;DHT22;56152;49.996;18.980;2023-07-13T17:05:05;20.50;91.70
43647;DHT22;56152;49.996;18.980;2023-07-13T17:10:26;20.50;91.60
43647;DHT22;56152;49.996;18.980;2023-07-13T17:15:36;20.60;91.40
43647;DHT22;56152;49.996;18.980;2023-07-13T17:20:45;20.50;91.50
43647;DHT22;56152;49.996;18.980;2023-07-13T17:25:52;20.50;91.60
43647;DHT22;56152;49.996;18.980;2023-07-13T17:31:05;20.50;91.70
43647;DHT22;56152;49.996;18.980;2023-07-13T17:36:13;20.40;91.80
43647;DHT22;56152;49.996;18.980;2023-07-13T17:41:17;20.40;91.80
43647;DHT22;56152;49.996;18.980;2023-07-13T17:46:23;20.40;91.90
43647;DHT22;56152;49.996;18.980;2023-07-13T17:51:40;20.30;92.00
43647;DHT22;56152;49.996;18.980;2023-07-13T17:56:51;20.20;92.00
43647;DHT22;56152;49.996;18.980;2023-07-13T18:01:54;20.10;92.20
43647;DHT22;56152;49.996;18.980;2023-07-13T18:07:09;20.10;92.30
43647;DHT22;56152;49.996;18.980;2023-07-13T18:12:18;20.00;92.30
43647;DHT22;56152;49.996;18.980;2023-07-13T18:17:22;19.90;92.40
43647;DHT22;56152;49.996;18.980;2023-07-13T18:22:52;19.90;92.40
43647;DHT22;56152;49.996;18.980;2023-07-13T18:27:58;19.90;92.50
43647;DHT22;56152;49.996;18.980;2023-07-13T18:33:00;19.80;92.70
43647;DHT22;56152;49.996;18.980;2023-07-13T18:38:16;19.70;92.80
43647;DHT22;56152;49.996;18.980;2023-07-13T18:43:39;19.60;92.90
43647;DHT22;56152;49.996;18.980;2023-07-13T18:48:42;19.50;93.10
43647;DHT22;56152;49.996;18.980;2023-07-13T18:53:49;19.40;93.30
43647;DHT22;56152;49.996;18.980;2023-07-13T18:58:53;19.20;93.40
43647;DHT22;56152;49.996;18.980;2023-07-13T19:03:56;19.10;93.60
43647;DHT22;56152;49.996;18.980;2023-07-13T19:09:01;18.90;93.80
43647;DHT22;56152;49.996;18.980;2023-07-13T19:14:17;18.80;94.00
43647;DHT22;56152;49.996;18.980;2023-07-13T19:19:20;18.70;94.10
43647;DHT22;56152;49.996;18.980;2023-07-13T19:24:30;18.60;94.10
43647;DHT22;56152;49.996;18.980;2023-07-13T19:30:02;18.50;94.20
43647;DHT22;56152;49.996;18.980;2023-07-13T19:35:07;18.30;94.20
43647;DHT22;56152;49.996;18.980;2023-07-13T19:40:28;18.20;94.40
43647;DHT22;56152;49.996;18.980;2023-07-13T19:45:30;18.10;94.50
43647;DHT22;56152;49.996;18.980;2023-07-13T19:50:34;18.00;94.60
43647;DHT22;56152;49.996;18.980;2023-07-13T19:55:38;17.90;94.80
43647;DHT22;56152;49.996;18.980;2023-07-13T20:00:49;17.80;94.70
43647;DHT22;56152;49.996;18.980;2023-07-13T20:05:59;17.70;94.60
43647;DHT22;56152;49.996;18.980;2023-07-13T20:11:04;17.60;94.70
43647;DHT22;56152;49.996;18.980;2023-07-13T20:16:11;17.60;94.70
43647;DHT22;56152;49.996;18.980;2023-07-13T20:21:15;17.50;95.00
43647;DHT22;56152;49.996;18.980;2023-07-13T20:26:24;17.40;94.90
43647;DHT22;56152;49.996;18.980;2023-07-13T20:31:33;17.30;95.10
43647;DHT22;56152;49.996;18.980;2023-07-13T20:36:35;17.30;95.20
43647;DHT22;56152;49.996;18.980;2023-07-13T20:41:39;17.30;95.20
43647;DHT22;56152;49.996;18.980;2023-07-13T20:47:00;17.20;95.30
43647;DHT22;56152;49.996;18.980;2023-07-13T20:52:10;17.10;95.10
43647;DHT22;56152;49.996;18.980;2023-07-13T20:57:14;17.10;95.10
43647;DHT22;56152;49.996;18.980;2023-07-13T21:02:30;17.00;95.10
43647;DHT22;56152;49.996;18.980;2023-07-13T21:07:32;16.90;95.30
43647;DHT22;56152;49.996;18.980;2023-07-13T21:19:02;16.70;95.50
43647;DHT22;56152;49.996;18.980;2023-07-13T21:24:08;16.60;95.50
43647;DHT22;56152;49.996;18.980;2023-07-13T21:29:14;16.60;95.80
43647;DHT22;56152;49.996;18.980;2023-07-13T21:34:19;16.50;95.80
43647;DHT22;56152;49.996;18.980;2023-07-13T21:45:21;16.30;95.80
43647;DHT22;56152;49.996;18.980;2023-07-13T21:50:34;16.20;96.00
43647;DHT22;56152;49.996;18.980;2023-07-13T21:55:36;16.20;96.10
43647;DHT22;56152;49.996;18.980;2023-07-13T22:00:42;16.10;95.90
43647;DHT22;56152;49.996;18.980;2023-07-13T22:05:46;16.10;95.90
43647;DHT22;56152;49.996;18.980;2023-07-13T22:10:49;16.00;95.90
43647;DHT22;56152;49.996;18.980;2023-07-13T22:16:27;15.90;96.00
43647;DHT22;56152;49.996;18.980;2023-07-13T22:21:32;15.90;95.90
43647;DHT22;56152;49.996;18.980;2023-07-13T22:26:52;15.90;95.90
43647;DHT22;56152;49.996;18.980;2023-07-13T22:31:56;15.80;95.80
43647;DHT22;56152;49.996;18.980;2023-07-13T22:37:10;15.70;95.80
43647;DHT22;56152;49.996;18.980;2023-07-13T22:42:26;15.70;95.80
43647;DHT22;56152;49.996;18.980;2023-07-13T22:47:28;15.70;95.80
43647;DHT22;56152;49.996;18.980;2023-07-13T22:52:32;15.70;95.70
43647;DHT22;56152;49.996;18.980;2023-07-13T23:03:24;15.60;95.80
43647;DHT22;56152;49.996;18.980;2023-07-13T23:08:31;15.50;95.80
43647;DHT22;56152;49.996;18.980;2023-07-13T23:13:46;15.50;95.80
43647;DHT22;56152;49.996;18.980;2023-07-13T23:18:49;15.40;95.80
43647;DHT22;56152;49.996;18.980;2023-07-13T23:24:08;15.30;95.80
43647;DHT22;56152;49.996;18.980;2023-07-13T23:29:12;15.20;95.90
43647;DHT22;56152;49.996;18.980;2023-07-13T23:34:29;15.10;96.10
43647;DHT22;56152;49.996;18.980;2023-07-13T23:39:33;14.90;95.90
43647;DHT22;56152;49.996;18.980;2023-07-13T23:44:35;14.80;96.10
43647;DHT22;56152;49.996;18.980;2023-07-13T23:49:39;14.80;96.10
43647;DHT22;56152;49.996;18.980;2023-07-13T23:54:43;14.80;96.10
43647;DHT22;56152;49.996;18.980;2023-07-13T23:59:45;14.70;96.10
